Tiempo atmosférico en la estación meteorológica de Herrera Del Duque, Badajoz (447 m.)



Fecha
DESCASC
Temp. máxima en grados centígrados (hora)
DESCASC
Temp. mínima en grados centígrados (hora)
DESCASC
Temp. media en grados centígrados
DESCASC
Racha de viento máxima en m/sg (hora)
DESCASC
Velocidad máxima media en intervalos de 10 minutos(hora)
DESCASC
Precipitaciones diarias en mm
DESCASC
Precipitaciones de 00:00 a 06:00 en mm
DESCASC
Precipitaciones de 06:00 a 12:00 en mm
DESCASC
Precipitaciones de 12:00 a 18:00 en mm
DESCASC
Precipitaciones de 18:00 a 24:00 en mm
DESCASC
05-12-2019 14.7 (15:30) 6.2 (07:50) 10.4 10.83 (16:20) 5.83 (15:10) 0.2 0.2 0 0 0
04-12-2019 13.6 (13:20) 7.4 (09:00) 10.5 6.94 (00:30) 3.61 (00:30) 2.2 1.2 0 0.8 0.2
03-12-2019 13 (13:50) 5.6 (00:00) 9.3 9.44 (13:50) 6.39 (13:50) 0.2 0 0 0 0.2
02-12-2019 12.9 (13:30) 7 (00:00) 9.9 13.06 (13:40) 7.78 (13:40) 0.2 0 0.2 0 0
01-12-2019 12.3 (16:10) 7.1 (00:00) 9.7 8.89 (12:10) 5 (12:10) 8 0 1.2 5.8 1
30-11-2019 15.4 (15:20) 10.7 (00:00) 13 9.44 (21:20) 5.83 (21:20) 2.8 0 0 0 2.8
29-11-2019 16 (13:20) 12.3 (00:00) 14.2 6.67 (11:30) 3.89 (11:30) 0 0 0 0 0
28-11-2019 15.2 (15:20) 10 (00:00) 12.6 6.94 (15:50) 3.89 (01:20) 0 0 0 0 0
27-11-2019 15.3 (14:40) 10.8 (00:00) 13.1 13.89 (00:10) 7.5 (00:10) 1.2 1.2 0 0 0
26-11-2019 16.4 (15:50) 12.5 (00:00) 14.4 15 (23:59) 7.5 (23:50) 5.2 0 0.4 1 3.8
25-11-2019 16.9 (14:30) 10.9 (00:00) 13.9 9.72 (02:30) 6.11 (02:30) 5.4 2.2 3.2 0 0
24-11-2019 13.1 (15:20) 5.5 (00:00) 9.3 7.5 (14:20) 4.44 (15:40) 0 0 0 0 0
23-11-2019 14.2 (15:10) 7.8 (00:00) 11 16.11 (00:20) 9.17 (00:20) 4.2 4.2 0 0 0
22-11-2019 15 (17:00) 9.2 (00:00) 12.1 18.61 (14:50) 7.78 (23:20) 22 0.4 11.6 9.8 0.2
21-11-2019 13 (17:00) 8.6 (00:00) 10.8 7.5 (08:40) 3.89 (08:30) 5.8 0.8 5 0 0
20-11-2019 9.1 (23:00) 5.2 (00:00) 7.2 6.39 (18:50) 3.61 (19:20) 3 0 1.2 1.8 0
19-11-2019 11.5 (14:50) 1.2 (00:00) 6.4 3.06 (15:40) 2.22 (15:40) 0 0 0 0 0
18-11-2019 14.3 (15:40) 2.7 (00:00) 8.5 6.11 (01:50) 3.89 (01:50) 0 0 0 0 0
17-11-2019 11.5 (20:20) 4.7 (00:00) 8.1 11.67 (20:30) 5.83 (20:30) 11.4 0 0.2 0.8 10.4
16-11-2019 12.4 (15:40) -1 (-00:0) 5.7 7.5 (15:50) 4.17 (14:20) 0 0 0 0 0
15-11-2019 12.4 (15:10) 2.9 (00:00) 7.6 12.5 (02:50) 7.22 (02:50) 0 0 0 0 0
14-11-2019 11.6 (14:30) 7.8 (00:00) 9.7 15 (15:10) 9.17 (17:00) 2.4 0 2.4 0 0
13-11-2019 20.1 (14:30) 11.3 (00:00) 15.7 12.5 (10:40) 7.78 (09:20) 1.8 1 0.8 0 0
12-11-2019 15.6 (17:00) 7.6 (00:00) 11.6 11.67 (22:20) 7.22 (22:20) 0 0 0 0 0
11-11-2019 12.8 (17:40) 8.3 (21:10) 10.6 5 (11:50) 2.78 (12:00) 0 0 0 0 0
10-11-2019 13.1 (15:00) 7.9 (00:00) 10.5 12.22 (15:30) 7.5 (16:10) 0 0 0 0 0
09-11-2019 14.8 (15:20) 3.5 (00:00) 9.2 10 (21:10) 5.83 (21:50) 1.4 0 0 0 1.4
08-11-2019 14.9 (15:40) 5.8 (00:00) 10.3 10 (03:20) 6.11 (03:20) 0 0 0 0 0

Gráficas

Temp. máximas Temp. mínimas Temp. medias Precipitaciones Rachas de viento máximas Velocidades máximas media en intervalos de 10 minutos

Datos horarios

Fecha y hora oficial Temperatura (ºC) Velocidad del viento (km/h) Dirección del viento Racha (km/h) Dirección de racha Precipitación (mm) Presión (hPa) Tendencia (hPa) Humedad (%)
2019-12-07 23:00:00 6.3 2 Oeste 8 Oeste 0 973.2 1 88
2019-12-07 22:00:00 6.9 0 Calma 4 Sudeste 0 972.9 1.3 84
2019-12-07 21:00:00 8 0 Calma 4 Sudeste 0 972.5 1.3 82
2019-12-07 20:00:00 9.2 0 Calma 4 Sudeste 0 972.2 1.1 77
2019-12-07 19:00:00 10.7 3 Sudeste 13 Sudeste 0 971.6 0.9 72
2019-12-07 18:00:00 12.1 5 Sur 8 Sudeste 0 971.2 0.7 66
2019-12-07 17:00:00 15.6 0 Calma 6 Oeste 0 971.1 -0.2 53
2019-12-07 16:00:00 15 2 Este 11 Nordeste 0 970.7 -1.2 55
2019-12-07 15:00:00 13.9 5 Este 11 Este 0 970.5 -1.9 58
2019-12-07 14:00:00 13.1 4 Este 9 Este 0 971.3 -0.8 62
2019-12-07 13:00:00 11.8 5 Nordeste 14 Nordeste 0 971.9 -0.1 67
2019-12-07 12:00:00 11.2 7 Nordeste 13 Nordeste 0.2 972.4 1 70
2019-12-07 11:00:00 9.4 7 Este 15 Este 0 972.1 1.1 78
2019-12-07 10:00:00 6.7 3 Este 6 Este 0 972 1.3 85
2019-12-07 09:00:00 4.5 4 Sur 10 Sudoeste 0 971.4 1 91
2019-12-07 08:00:00 3.4 5 Norte 7 Norte 0 971 0.5 89
2019-12-07 07:00:00 4.3 2 Sur 11 Sudeste 0 970.7 0.4 89
2019-12-07 06:00:00 4.5 3 Sudoeste 8 Oeste 0 970.4 0.1 88
2019-12-07 05:00:00 4.8 3 Sudoeste 5 Sudoeste 0 970.5 0.3 88
2019-12-07 04:00:00 5 0 Calma 8 Sur 0 970.3 -0.6 87
2019-12-07 03:00:00 5.1 5 Sudeste 7 Norte 0 970.3 -0.2 87
2019-12-07 02:00:00 6.3 3 Sur 7 Sur 0 970.2 -0.1 84
2019-12-07 01:00:00 6.6 6 Oeste 11 Noroeste 0 970.9 1 85
2019-12-07 00:00:00 6.9 5 Sudoeste 8 Sur 0 970.5 0.7 82
2019-12-06 23:00:00 7.7 4 Sur 8 Norte 0 970.3 1.2 80
2019-12-06 22:00:00 8.6 4 Oeste 11 Nordeste 0 969.9 1.3 77
2019-12-06 21:00:00 9 2 Noroeste 9 Oeste 0 969.8 1.8 76
2019-12-06 20:00:00 10.2 5 Nordeste 8 Este 0 969.1 1.1 72
2019-12-06 19:00:00 11.5 4 Este 7 Este 0 968.6 0.7 67
2019-12-06 18:00:00 14 4 Sudeste 13 Nordeste 0 968 -0.1 59
2019-12-06 17:00:00 15.9 8 Este 17 Este 0 968 -0.7 50
2019-12-06 16:00:00 16.1 9 Nordeste 19 Nordeste 0 967.9 -1.3 49
2019-12-06 15:00:00 15.7 10 Nordeste 23 Nordeste 0 968.1 -1.7 50
2019-12-06 14:00:00 15.2 13 Nordeste 22 Nordeste 0 968.7 -1.4 52
2019-12-06 13:00:00 14.3 12 Nordeste 21 Nordeste 0 969.2 -0.5 56
2019-12-06 12:00:00 13.3 12 Nordeste 22 Nordeste 0 969.8 0.6 61
2019-12-06 11:00:00 11.7 2 Sudoeste 10 Noroeste 0 970.1 1.3 69
2019-12-06 10:00:00 9.2 4 Noroeste 8 Norte 0 969.7 1.5 79
2019-12-06 09:00:00 6.3 6 Sudoeste 8 Sudoeste 0 969.2 1.3 87
2019-12-06 08:00:00 6.4 3 Oeste 9 Oeste 0 968.8 1.3 85
2019-12-06 07:00:00 6.5 5 Oeste 8 Sudoeste 0 968.2 0.7 85
2019-12-06 06:00:00 6.6 5 Oeste 10 Oeste 0 967.9 0.4 85
2019-12-06 05:00:00 6.8 3 Sudoeste 10 Oeste 0 967.5 0 83
2019-12-06 04:00:00 7.7 3 Sudoeste 8 Este 0 967.5 -0.3 81
2019-12-06 03:00:00 8 5 Oeste 17 Este 0 967.5 0 81
2019-12-06 02:00:00 8.8 9 Nordeste 16 Este 0 967.5 0.3 77
2019-12-06 01:00:00 9.1 7 Nordeste 12 Nordeste 0 967.8 1 75
2019-12-06 00:00:00 9.8 5 Este 13 Nordeste 0 967.5 1.2 72
2019-12-05 23:00:00 10.6 8 Este 12 Este 0 967.2 1.6 69
2019-12-05 22:00:00 10.5 4 Este 10 Norte 0 966.8 1.6 71
2019-12-05 21:00:00 11.1 5 Nordeste 20 Este 0 966.3 1.4 68
2019-12-05 20:00:00 11.5 10 Nordeste 22 Nordeste 0 965.6 1.3 67
2019-12-05 19:00:00 12.4 14 Nordeste 27 Nordeste 0 965.2 1.6 63
2019-12-05 18:00:00 12.8 13 Nordeste 27 Este 0 964.9 1.1 60
2019-12-05 17:00:00 13.4 16 Este 39 Este 0 964.3 0.6 56
2019-12-05 16:00:00 14.3 19 Nordeste 36 Este 0 963.6 -0.7 49
2019-12-05 15:00:00 14 17 Este 31 Nordeste 0 963.8 -0.8 55
2019-12-05 14:00:00 14.1 15 Este 29 Nordeste 0 963.7 -0.8 53
2019-12-05 13:00:00 13.4 17 Nordeste 30 Este 0 964.3 0.6 56
2019-12-05 12:00:00 12.4 19 Este 28 Este 0 964.6 1.6 58
2019-12-05 11:00:00 11.6 9 Nordeste 18 Nordeste 0 964.5 2.2 63
2019-12-05 10:00:00 9.5 4 Sudoeste 9 Oeste 0 963.7 2.2 80
2019-12-05 09:00:00 6.6 2 Sudoeste 11 Sudeste 0 963 2.1 86
2019-12-05 08:00:00 6.5 5 Sudoeste 9 Sur 0 962.3 1.8 87
2019-12-05 07:00:00 6.6 4 Sur 10 Sudeste 0 961.5 1.1 88
2019-12-05 06:00:00 6.3 4 Oeste 10 Noroeste 0 960.9 0.8 89
2019-12-05 05:00:00 6.7 5 Sudoeste 6 Sur 0 960.5 0.5 89
2019-12-05 04:00:00 7.3 3 Sur 7 Sudeste 0 960.4 0.7 89
2019-12-05 03:00:00 7 2 Sur 8 Sur 0.2 960.1 0.8 88
2019-12-05 02:00:00 7.5 5 Sudoeste 7 Sudeste 0 960 1.2 88
2019-12-05 01:00:00 7.7 5 Sudoeste 7 Sur 0 959.7 1.1 88
2019-12-05 00:00:00 8.5 4 Sur 6 Sudeste 0 959.3 1 87
2019-12-04 23:00:00 9.5 2 Sur 4 Sudoeste 0 958.8 0.5 87
2019-12-04 22:00:00 9.5 2 Noroeste 6 Sudoeste 0 958.6 1.2 86
2019-12-04 21:00:00 9.4 4 Sudoeste 5 Sudoeste 0.2 958.3 1.2 86
2019-12-04 20:00:00 9.7 5 Norte 9 Norte 0 958.3 1.5 85
2019-12-04 19:00:00 10 2 Este 6 Norte 0 957.4 1.1 79
2019-12-04 18:00:00 10.1 4 Norte 11 Nordeste 0.4 957.1 0.8 82
2019-12-04 17:00:00 10.7 4 Norte 8 Norte 0.2 956.8 0.2 78
2019-12-04 16:00:00 11.3 6 Norte 9 Norte 0.2 956.3 -1 70
2019-12-04 15:00:00 12.3 7 Oeste 14 Oeste 0 956.3 -1.5 62
2019-12-04 14:00:00 13.1 7 Noroeste 14 Noroeste 0 956.6 -1.6 60
2019-12-04 13:00:00 12.8 6 Norte 11 Noroeste 0 957.3 -0.8 59
2019-12-04 12:00:00 11.5 4 Noroeste 8 Noroeste 0 957.8 0 66
2019-12-04 11:00:00 10 6 Nordeste 9 Nordeste 0 958.2 0.3 70
2019-12-04 10:00:00 8.6 3 Sudoeste 5 Sudeste 0 958.1 0.1 79
2019-12-04 09:00:00 7.5 2 Oeste 4 Este 0 957.8 0 84
2019-12-04 08:00:00 7.7 2 Sur 5 Sudoeste 0 957.9 -0.6 83
2019-12-04 07:00:00 7.5 3 Sur 9 Oeste 0 958 -0.8 84
2019-12-04 06:00:00 7.6 0 Calma 8 Sudoeste 0 957.8 -1.8 84
2019-12-04 05:00:00 7.7 4 Norte 12 Este 0 958.5 -2 84
2019-12-04 04:00:00 7.9 8 Este 11 Este 0 958.8 -2.2 78
2019-12-04 03:00:00 8.1 3 Sudeste 6 Nordeste 0 959.6 -1.3 78
2019-12-04 02:00:00 8.5 3 Sudeste 6 Este 0.2 960.5 -0.4 75
2019-12-04 01:00:00 8.9 4 Sudeste 25 Este 1 961 0.3 69
2019-12-04 00:00:00 9.4 10 Este 23 Este 0.2 960.9 0.2 67
2019-12-03 23:00:00 9.9 10 Este 25 Este 0 960.9 0.5 66
2019-12-03 22:00:00 10.2 11 Este 24 Este 0 960.7 0.5 65
2019-12-03 21:00:00 10.4 10 Este 21 Este 0 960.7 0.7 67
2019-12-03 20:00:00 10.5 8 Nordeste 15 Este 0 960.4 0.6 68
2019-12-03 19:00:00 10.7 7 Este 24 Nordeste 0 960.2 0.4 67
2019-12-03 18:00:00 10.7 13 Nordeste 25 Nordeste 0 960 0.1 66
2019-12-03 17:00:00 11.7 16 Este 27 Este 0 959.8 -0.6 62
2019-12-03 16:00:00 11.9 15 Este 28 Este 0 959.8 -1.1 60
2019-12-03 15:00:00 12.5 14 Este 28 Este 0 959.9 -1.9 57
2019-12-03 14:00:00 12.6 20 Este 34 Nordeste 0 960.4 -1.9 56
2019-12-03 13:00:00 12.2 19 Nordeste 32 Nordeste 0 960.9 -1.3 59
2019-12-03 12:00:00 12.1 18 Este 28 Este 0 961.8 -0.4 60
2019-12-03 11:00:00 10.4 2 Nordeste 9 Sudeste 0 962.3 0.1 65
2019-12-03 10:00:00 8.7 5 Oeste 11 Oeste 0 962.2 0.2 70
2019-12-03 09:00:00 6.2 3 Sudoeste 11 Norte 0 962.2 0.3 78
2019-12-03 08:00:00 6.6 6 Nordeste 14 Nordeste 0 962.2 0.2 75
2019-12-03 07:00:00 5.8 3 Sudeste 12 Este 0 962 -0.5 79
2019-12-03 06:00:00 5.7 2 Sur 9 Sudoeste 0 961.9 -0.7 79
2019-12-03 05:00:00 6.2 3 Nordeste 12 Norte 0 962 -1 77
2019-12-03 04:00:00 7.1 5 Norte 9 Norte 0 962.5 -0.8 73
2019-12-03 03:00:00 7.2 5 Sudeste 14 Oeste 0 962.6 -0.8 74
2019-12-03 02:00:00 7.8 8 Sudoeste 18 Nordeste 0 963 -0.3 72
2019-12-03 01:00:00 8.6 5 Este 13 Nordeste 0 963.3 -0.1 70
2019-12-03 00:00:00 9.8 9 Nordeste 15 Nordeste 0 963.4 0.4 65
2019-12-02 23:00:00 9.7 8 Nordeste 20 Este 0 963.3 0.7 67
2019-12-02 22:00:00 10.9 12 Este 22 Nordeste 0 963.4 1.4 63
2019-12-02 21:00:00 10.7 9 Este 20 Este 0 963 1.5 64
2019-12-02 20:00:00 11.2 14 Este 30 Nordeste 0 962.6 1.3 62
2019-12-02 19:00:00 11 16 Nordeste 33 Este 0 962 1.2 63
2019-12-02 18:00:00 10.8 20 Este 33 Este 0 961.5 1 65
2019-12-02 17:00:00 11.2 16 Este 30 Este 0 961.3 0.7 65
2019-12-02 16:00:00 10.9 17 Nordeste 37 Nordeste 0 960.8 -0.3 66
2019-12-02 15:00:00 11.8 17 Este 37 Nordeste 0 960.5 -0.9 61
2019-12-02 14:00:00 12.5 21 Este 47 Este 0 960.6 -0.5 56
2019-12-02 13:00:00 12.1 20 Nordeste 33 Nordeste 0 961.1 0.6 60
2019-12-02 12:00:00 10.5 17 Este 37 Nordeste 0 961.4 1.6 69
2019-12-02 11:00:00 9.9 17 Este 33 Este 0 961.1 1.6 74
2019-12-02 10:00:00 9.2 14 Nordeste 27 Este 0 960.5 1.7 75
2019-12-02 09:00:00 8.6 16 Nordeste 24 Nordeste 0.2 959.8 1.5 75
2019-12-02 08:00:00 8.6 10 Este 19 Nordeste 0 959.5 1.2 76
2019-12-02 07:00:00 7.9 7 Nordeste 14 Este 0 958.8 0.5 84
2019-12-02 06:00:00 8.3 9 Nordeste 19 Nordeste 0 958.3 0.3 84
2019-12-02 05:00:00 7.9 9 Nordeste 13 Nordeste 0 958.3 0.3 90
2019-12-02 04:00:00 7.4 3 Oeste 5 Oeste 0 958.3 0.2 91
2019-12-02 03:00:00 7.2 4 Oeste 8 Oeste 0 958 -0.3 91
2019-12-02 02:00:00 7.1 5 Sudoeste 7 Sudoeste 0 958 -0.1 91
2019-12-02 01:00:00 7.2 3 Oeste 7 Noroeste 0 958.1 0.1 90
2019-12-02 00:00:00 7.1 4 Oeste 7 Noroeste 0 958.3 0.5 89
2019-12-01 23:00:00 7.5 2 Norte 5 Norte 0 958.1 0.3 88
2019-12-01 22:00:00 8.3 2 Norte 12 Norte 0 958 0.3 87
2019-12-01 21:00:00 8.9 2 Sur 6 Sudeste 0 957.8 0.6 86
2019-12-01 20:00:00 9.2 2 Oeste 9 Nordeste 0.2 957.8 0.6 87
2019-12-01 19:00:00 9.2 5 Nordeste 22 Noroeste 0.8 957.7 0.5 84
2019-12-01 18:00:00 10.6 6 Sur 14 Sur 0 957.2 -0.4 80
2019-12-01 17:00:00 11.9 4 Sur 14 Sudoeste 0 957.2 -1 76
2019-12-01 16:00:00 12 8 Sudoeste 17 Sur 0 957.2 -1.6 77
2019-12-01 15:00:00 11.3 10 Sudoeste 23 Sudoeste 0 957.6 -2.2 81
2019-12-01 14:00:00 10.2 6 Sudoeste 24 Oeste 4 958.2 -2.1 87
2019-12-01 13:00:00 10.5 10 Sur 32 Sur 1.8 958.8 -1.6 85
2019-12-01 12:00:00 10.5 15 Sudoeste 30 Sudoeste 0 959.8 -0.9 82
2019-12-01 11:00:00 9.8 13 Sur 31 Sur 0 960.3 -0.4 84
2019-12-01 10:00:00 9.3 13 Sur 29 Sur 0.2 960.4 -0.6 86
2019-12-01 09:00:00 9.1 12 Sudoeste 24 Sur 1 960.7 -0.8 86
2019-12-01 08:00:00 9.6 12 Sur 21 Sudoeste 0 960.7 -1.2 82
2019-12-01 07:00:00 9.6 11 Sudoeste 18 Sur 0 961 -1.7 83
2019-12-01 06:00:00 9.7 10 Oeste 18 Oeste 0 961.5 -1.7 83
2019-12-01 05:00:00 9.7 8 Oeste 21 Oeste 0 961.9 -1.9 84
2019-12-01 04:00:00 9.3 6 Oeste 20 Oeste 0 962.7 -1.5 84
2019-12-01 03:00:00 9.7 9 Sudoeste 25 Oeste 0 963.2 -1.2 83
2019-12-01 02:00:00 10.2 14 Oeste 24 Oeste 0 963.8 -0.7 82
2019-12-01 01:00:00 10.7 14 Oeste 25 Oeste 0 964.2 -0.5 83
2019-12-01 00:00:00 10.8 12 Oeste 23 Oeste 0 964.4 -0.1 85
2019-11-30 23:00:00 11 13 Oeste 30 Oeste 0.2 964.5 -0.2 86
2019-11-30 22:00:00 11.5 14 Oeste 34 Oeste 1.6 964.7 -0.2 87
2019-11-30 21:00:00 13.1 18 Sudoeste 33 Sudoeste 0.8 964.5 -0.6 81
2019-11-30 20:00:00 13.3 14 Sudoeste 31 Sur 0.2 964.7 -0.5 78
2019-11-30 19:00:00 14.3 16 Sudoeste 33 Sudoeste 0 964.9 -1.3 67
2019-11-30 18:00:00 14.2 18 Sudoeste 33 Sur 0 965.1 -1.6 68
2019-11-30 17:00:00 14.7 19 Sudoeste 32 Sudoeste 0 965.2 -2.5 64
2019-11-30 16:00:00 15 11 Sudoeste 27 Sudoeste 0 966.2 -2.4 64
2019-11-30 15:00:00 15.1 14 Sudoeste 26 Sudoeste 0 966.7 -2.7 65
2019-11-30 14:00:00 15 11 Sudoeste 21 Sudoeste 0 967.7 -2 67
2019-11-30 13:00:00 15 10 Oeste 17 Oeste 0 968.6 -1 70
2019-11-30 12:00:00 13.9 8 Sudoeste 13 Oeste 0 969.4 0.4 76
2019-11-30 11:00:00 13.4 9 Sudoeste 16 Sudoeste 0 969.7 0.8 78
2019-11-30 10:00:00 12.9 7 Sudoeste 20 Sudoeste 0 969.6 0.7 82
2019-11-30 09:00:00 12.8 10 Sudoeste 17 Oeste 0 969 -0.2 84
2019-11-30 08:00:00 12.9 2 Sudoeste 14 Sudoeste 0 968.9 -0.6 84
2019-11-30 07:00:00 13.2 8 Sudoeste 14 Sudoeste 0 968.9 -0.4 83
2019-11-30 06:00:00 13.4 3 Sudeste 8 Oeste 0 969.2 -0.1 82
2019-11-30 05:00:00 13.5 5 Oeste 12 Oeste 0 969.5 -0.4 82
2019-11-30 04:00:00 13.7 7 Sudoeste 18 Sudoeste 0 969.3 -0.9 81
2019-11-30 03:00:00 13.8 10 Sudoeste 18 Sudoeste 0 969.3 -0.8 78
2019-11-30 02:00:00 14.1 4 Sur 7 Sudoeste 0 969.9 -0.1 78
2019-11-30 01:00:00 14.3 4 Sudeste 9 Sudoeste 0 970.2 0.3 78
2019-11-30 00:00:00 14 7 Sur 12 Sudoeste 0 970.1 0.5 80
2019-11-29 23:00:00 14.5 4 Sudoeste 10 Oeste 0 970 0.3 77
2019-11-29 22:00:00 14.8 4 Sudoeste 13 Oeste 0 969.9 0.2 76
2019-11-29 21:00:00 14.7 4 Sudoeste 10 Sur 0 969.6 0.2 77
2019-11-29 20:00:00 14.9 5 Sur 11 Sudoeste 0 969.7 0.4 75
2019-11-29 19:00:00 15.3 3 Sudoeste 9 Noroeste 0 969.7 0.4 71
2019-11-29 18:00:00 15.3 3 Sur 17 Sudoeste 0 969.4 0.1 70
2019-11-29 17:00:00 15.7 5 Sudoeste 15 Sudoeste 0 969.3 -0.4 68
2019-11-29 16:00:00 15.7 10 Sudoeste 20 Sudoeste 0 969.3 -0.8 66
2019-11-29 15:00:00 15.5 10 Sudoeste 19 Oeste 0 969.3 -1.2 70
2019-11-29 14:00:00 15.8 9 Oeste 20 Oeste 0 969.7 -0.5 68
2019-11-29 13:00:00 15.7 12 Sudoeste 23 Oeste 0 970.1 0.4 68
2019-11-29 12:00:00 15 9 Sudoeste 24 Sudoeste 0 970.5 1.2 73
2019-11-29 11:00:00 14.4 12 Oeste 19 Oeste 0 970.2 1.3 75
2019-11-29 10:00:00 13.5 6 Sudoeste 15 Sudoeste 0 969.7 1.2 78
2019-11-29 09:00:00 12.8 5 Sudoeste 14 Sudoeste 0 969.3 1.3 80
2019-11-29 08:00:00 12.6 4 Sudoeste 10 Sudoeste 0 968.9 0.9 80
2019-11-29 07:00:00 12.6 5 Sudeste 18 Sudoeste 0 968.5 0.5 80
2019-11-29 06:00:00 12.7 13 Sudoeste 23 Sudoeste 0 968 0.3 78
2019-11-29 05:00:00 13 9 Sudoeste 14 Sudoeste 0 968 0.5 77
2019-11-29 04:00:00 13 6 Sudoeste 14 Sudoeste 0 968 0.4 79
2019-11-29 03:00:00 13.3 8 Sudoeste 17 Sudoeste 0 967.7 0.3 76
2019-11-29 02:00:00 13.5 6 Sudoeste 16 Sudoeste 0 967.5 0 76
2019-11-29 01:00:00 13.7 8 Sudoeste 22 Sudoeste 0 967.6 0.3 74
2019-11-29 00:00:00 13.6 9 Sudoeste 21 Sudoeste 0 967.4 0.3 72
2019-11-28 23:00:00 13.5 8 Sudoeste 17 Sudoeste 0 967.5 1.1 73
2019-11-28 22:00:00 13.7 11 Sudoeste 16 Sudoeste 0 967.3 1.1 73
2019-11-28 21:00:00 13.4 5 Sudoeste 10 Oeste 0 967.1 1.3 75
2019-11-28 20:00:00 13.2 3 Sudoeste 21 Sudoeste 0 966.4 0.5 74
2019-11-28 19:00:00 13.9 9 Sudoeste 22 Sudoeste 0 966.2 0.4 69
2019-11-28 18:00:00 14.4 6 Sudoeste 20 Sudoeste 0 965.8 -0.2 67
2019-11-28 17:00:00 14.7 8 Sudoeste 21 Oeste 0 965.9 -0.5 66
2019-11-28 16:00:00 14.7 10 Sudoeste 25 Sudoeste 0 965.8 -1.3 64
2019-11-28 15:00:00 14.9 11 Sudoeste 22 Sudoeste 0 966 -1.4 63
2019-11-28 14:00:00 14 5 Sur 18 Sudoeste 0 966.4 -1.2 74
2019-11-28 13:00:00 13 8 Sudoeste 19 Sudoeste 0 967.1 0.2 78
2019-11-28 12:00:00 13.6 7 Sudoeste 17 Sudoeste 0 967.4 0.5 75
2019-11-28 11:00:00 12.1 8 Oeste 16 Oeste 0 967.6 1.1 81
2019-11-28 10:00:00 11.2 9 Sudoeste 18 Sudoeste 0 966.9 1 84
2019-11-28 09:00:00 10.9 9 Sudoeste 15 Sudoeste 0 966.9 1.4 85
2019-11-28 08:00:00 10.7 8 Sudoeste 17 Sudoeste 0 966.5 1.2 85
2019-11-28 07:00:00 10.6 10 Oeste 21 Sudoeste 0 965.9 0.7 86
2019-11-28 06:00:00 10.4 10 Sudoeste 20 Sudoeste 0 965.5 0.4 85
2019-11-28 05:00:00 10.2 9 Sudoeste 21 Sudoeste 0 965.3 0.4 86
2019-11-28 04:00:00 10.2 5 Sudoeste 17 Sudoeste 0 965.2 0.2 85
2019-11-28 03:00:00 10.7 8 Sudoeste 21 Sudoeste 0 965.1 0 82
2019-11-28 02:00:00 11.1 12 Sudoeste 24 Sudoeste 0 964.9 0 80
2019-11-28 01:00:00 11.9 13 Sudoeste 22 Sudoeste 0 965 0.4 76
2019-11-28 00:00:00 11.8 8 Sudoeste 20 Sudoeste 0 965.1 1.1 76
2019-11-27 23:00:00 12.3 12 Sudoeste 19 Sudoeste 0 964.9 1.2 72
2019-11-27 22:00:00 12.6 12 Sudoeste 22 Sudoeste 0 964.6 1.2 70
2019-11-27 21:00:00 12.9 13 Sudoeste 23 Sudoeste 0 964 1 68
2019-11-27 20:00:00 13 11 Sudoeste 26 Sudoeste 0 963.7 1 67
2019-11-27 19:00:00 13 12 Sudoeste 25 Sudoeste 0 963.4 1.2 65
2019-11-27 18:00:00 13.2 13 Oeste 29 Sudoeste 0 963 0.3 63
2019-11-27 17:00:00 14.9 17 Sudoeste 31 Oeste 0 962.7 -0.1 55
2019-11-27 16:00:00 15.1 16 Sudoeste 28 Oeste 0 962.2 -1.4 55
2019-11-27 15:00:00 15.2 14 Sudoeste 30 Sudoeste 0 962.7 -1.4 57
2019-11-27 14:00:00 14.5 13 Oeste 28 Oeste 0 962.8 -1 63
2019-11-27 06:00:00 12.1 17 Oeste 37 Oeste 0 961.2 1 82
2019-11-27 05:00:00 12.4 16 Oeste 39 Oeste 0.4 960.5 0.1 87
2019-11-27 04:00:00 12.5 20 Oeste 37 Sudoeste 0.8 960.2 -0.5 87
2019-11-27 03:00:00 13.2 18 Sudoeste 42 Sudoeste 0 960.2 -0.5 80
2019-11-27 02:00:00 13.4 19 Sudoeste 42 Oeste 0 960.4 0 79
2019-11-27 01:00:00 13.6 20 Sudoeste 50 Oeste 0 960.7 0.1 80
2019-11-27 00:00:00 14.1 26 Sudoeste 54 Sudoeste 0 960.7 0.4 80
2019-11-26 23:00:00 14.4 20 Oeste 43 Sudoeste 0 960.4 0.3 83
2019-11-26 22:00:00 14.6 19 Sudoeste 44 Sudoeste 0.6 960.6 0.6 85
2019-11-26 21:00:00 14.2 16 Sudoeste 36 Sudoeste 0.8 960.3 -0.1 87
2019-11-26 20:00:00 14.2 17 Sudoeste 35 Sudoeste 0.8 960.1 -0.3 86
2019-11-26 19:00:00 14.3 14 Sudoeste 36 Sudoeste 1.6 960 -0.6 85
2019-11-26 18:00:00 14.7 14 Sudoeste 33 Sur 0.6 960.4 -0.6 82
2019-11-26 17:00:00 16 17 Sudoeste 33 Sur 0 960.4 -1.6 75
2019-11-26 16:00:00 16.2 13 Sudoeste 26 Sudoeste 0 960.6 -2.1 76
2019-11-26 15:00:00 16 12 Sur 28 Sur 0 961 -2.9 81
2019-11-26 14:00:00 14.8 14 Sudoeste 36 Sudoeste 0.4 962 -2 85
2019-11-26 13:00:00 14.7 10 Sur 20 Sur 0 962.7 -1.5 85
2019-11-26 12:00:00 13.9 6 Sur 19 Sur 0.2 963.9 -0.2 88
2019-11-26 11:00:00 13.4 7 Sur 19 Sur 0 964 -0.1 88
2019-11-26 10:00:00 12.7 4 Sudeste 9 Sudeste 0.2 964.2 0.4 88
2019-11-26 09:00:00 12.7 6 Sudoeste 11 Sur 0 964.1 -0.1 84
2019-11-26 08:00:00 12.7 3 Este 6 Sudeste 0 964.1 -0.2 84
2019-11-26 07:00:00 12.8 4 Sur 10 Sudoeste 0 963.8 -1.1 84
2019-11-26 06:00:00 12.8 6 Sudoeste 12 Sudoeste 0 964.2 -0.8 86
2019-11-26 05:00:00 12.7 6 Sudoeste 11 Sudoeste 0 964.3 -0.7 86
2019-11-26 04:00:00 12.6 7 Oeste 19 Oeste 0 964.9 -0.6 84
2019-11-26 03:00:00 13.3 13 Sudoeste 23 Sudoeste 0 965 -0.3 81
2019-11-26 02:00:00 13.6 9 Sudoeste 18 Sudoeste 0 965 -0.6 81
2019-11-26 01:00:00 13.8 9 Sudoeste 15 Sudoeste 0 965.5 0 80
2019-11-26 00:00:00 13.2 4 Sudoeste 14 Sudoeste 0 965.3 -0.1 82
2019-11-25 23:00:00 13.3 5 Sudoeste 9 Oeste 0 965.6 0.6 82
2019-11-25 22:00:00 13.4 6 Oeste 13 Sudoeste 0 965.5 0.9 80
2019-11-25 21:00:00 14.1 5 Sudoeste 22 Sudoeste 0 965.4 0.8 78
2019-11-25 20:00:00 14.6 11 Sudoeste 28 Sudoeste 0 965 0.9 76
2019-11-25 19:00:00 15.1 14 Sudoeste 24 Sudoeste 0 964.6 0.6 73
2019-11-25 18:00:00 15.3 12 Sudoeste 26 Oeste 0 964.6 0.8 72
2019-11-25 17:00:00 15.7 13 Sudoeste 30 Oeste 0 964.1 0.2 73
2019-11-25 16:00:00 15.8 14 Oeste 27 Oeste 0 964 -0.4 73
2019-11-25 15:00:00 16.2 14 Oeste 29 Oeste 0 963.8 -0.7 74
2019-11-25 14:00:00 15.8 14 Oeste 34 Oeste 0 963.9 -0.3 74
2019-11-25 13:00:00 15.4 9 Oeste 20 Sudoeste 0 964.4 0.5 84
2019-11-25 12:00:00 14.8 8 Oeste 32 Oeste 0 964.5 0.7 89
2019-11-25 11:00:00 14 12 Sudoeste 21 Sudoeste 0.4 964.2 0.7 89
2019-11-25 10:00:00 13.2 3 Sudoeste 9 Oeste 0.4 963.9 0.6 90
2019-11-25 09:00:00 12.7 4 Sur 21 Sudoeste 0.6 963.8 0.6 90
2019-11-25 08:00:00 12.6 10 Sudoeste 27 Sudoeste 1.2 963.5 0.5 89
2019-11-25 07:00:00 12.4 9 Sudoeste 25 Sudoeste 0.6 963.3 0 89
2019-11-25 06:00:00 11.9 12 Sudoeste 28 Sudoeste 0.6 963.2 -0.6 89
2019-11-25 05:00:00 11.4 18 Sudoeste 31 Sudoeste 0.2 963 -1.3 89
2019-11-25 04:00:00 10.9 16 Sudoeste 33 Sudoeste 0.4 963.3 -1.7 89
2019-11-25 03:00:00 11 18 Sudoeste 35 Sudoeste 0.4 963.8 -0.9 88
2019-11-25 02:00:00 10.9 13 Sudoeste 30 Sudoeste 0.6 964.3 -1 87
2019-11-25 01:00:00 11.6 13 Sudoeste 24 Sudoeste 0 965 0.2 77
2019-11-25 00:00:00 11.9 10 Sudoeste 23 Sudoeste 0 964.7 -0.7 71
2019-11-24 23:00:00 11.6 7 Sudoeste 18 Sudoeste 0 965.3 0.1 72
2019-11-24 22:00:00 11.6 9 Sur 23 Sudoeste 0 964.8 0.1 73
2019-11-24 21:00:00 11.7 9 Sudoeste 17 Sudoeste 0 965.4 0.7 71
2019-11-24 20:00:00 11.6 6 Sudoeste 19 Sudoeste 0 965.2 0.7 69
2019-11-24 19:00:00 11.4 10 Oeste 24 Oeste 0 964.7 0.5 69
2019-11-24 18:00:00 11.7 12 Oeste 23 Oeste 0 964.7 0.6 70
2019-11-24 17:00:00 11.9 11 Sudoeste 25 Oeste 0 964.5 -0.1 70
2019-11-24 16:00:00 12 12 Oeste 24 Oeste 0 964.2 -0.9 65
2019-11-24 15:00:00 12.8 13 Sudoeste 27 Sudoeste 0 964.1 -1.6 61
2019-11-24 14:00:00 11.7 13 Sudoeste 22 Sudoeste 0 964.6 -0.9 64
2019-11-24 13:00:00 11.8 10 Oeste 20 Sudoeste 0 965.1 0 64
2019-11-24 12:00:00 9.5 7 Sur 26 Oeste 0 965.7 1.3 73
2019-11-24 11:00:00 9.7 4 Sudoeste 13 Sur 0 965.5 1.4 70
2019-11-24 10:00:00 7.5 9 Noroeste 21 Oeste 0 965.1 1.8 78
2019-11-24 09:00:00 6.5 8 Oeste 19 Oeste 0 964.4 1.5 82
2019-11-24 08:00:00 5.7 6 Oeste 21 Oeste 0 964.1 1.4 85
2019-11-24 07:00:00 5.6 8 Oeste 13 Oeste 0 963.3 1 84
2019-11-24 06:00:00 5.5 4 Norte 10 Sudoeste 0 962.9 0.5 83
2019-11-24 05:00:00 5.7 6 Norte 15 Oeste 0 962.7 0.3 82
2019-11-24 04:00:00 6.8 3 Sur 18 Sudoeste 0 962.3 0 79
2019-11-24 03:00:00 6.8 6 Sur 17 Sudoeste 0 962.4 0.4 80
2019-11-24 02:00:00 7.5 8 Sudoeste 21 Oeste 0 962.4 0.8 76
2019-11-24 01:00:00 8.1 13 Oeste 22 Oeste 0 962.3 1.1 72
2019-11-24 00:00:00 8.2 5 Sudoeste 19 Oeste 0 962 1.4 70
2019-11-23 23:00:00 8.6 8 Oeste 20 Oeste 0 961.6 1.7 69
2019-11-23 22:00:00 9.4 12 Oeste 24 Oeste 0 961.2 1.7 66
2019-11-23 21:00:00 9.9 10 Sudoeste 20 Sudoeste 0 960.6 2.5 62
2019-11-23 20:00:00 9.9 10 Sudoeste 20 Oeste 0 959.9 2.9 61
2019-11-23 19:00:00 10.8 12 Oeste 26 Oeste 0 959.5 3.1 56
2019-11-23 18:00:00 11.8 16 Oeste 34 Noroeste 0 958.1 2.3 51
2019-11-23 17:00:00 13.2 24 Oeste 39 Oeste 0 957 1.2 45
2019-11-23 16:00:00 13.6 24 Noroeste 40 Noroeste 0 956.4 1 44
2019-11-23 15:00:00 13.8 14 Oeste 37 Oeste 0 955.8 0.6 46
2019-11-23 14:00:00 13.1 24 Noroeste 41 Oeste 0 955.8 1.2 47
2019-11-23 13:00:00 13.1 19 Oeste 38 Oeste 0 955.4 2.1 48
2019-11-23 12:00:00 12 21 Oeste 38 Sudoeste 0 955.2 3.1 57
2019-11-23 11:00:00 10.6 21 Sudoeste 33 Sudoeste 0 954.6 3.6 66
2019-11-23 10:00:00 9.5 19 Oeste 34 Oeste 0 953.3 3.3 69
2019-11-23 09:00:00 8.1 18 Oeste 37 Oeste 0 952.1 3.3 78
2019-11-23 08:00:00 8.1 18 Oeste 33 Oeste 0 951 2.3 79
2019-11-23 07:00:00 8.6 18 Sudoeste 46 Oeste 0 950 2.1 77
2019-11-23 06:00:00 8.5 22 Oeste 45 Oeste 0 948.8 1.5 78
2019-11-23 05:00:00 8.8 19 Oeste 46 Oeste 0 948.7 2.3 73
2019-11-23 04:00:00 9.5 23 Oeste 46 Oeste 0 947.9 1.7 79
2019-11-23 03:00:00 9.9 26 Oeste 52 Oeste 0 947.3 1.5 78
2019-11-23 02:00:00 10 27 Oeste 46 Oeste 3 946.4 0.2 81
2019-11-23 01:00:00 10.4 28 Oeste 58 Oeste 1.2 946.2 0.1 86
2019-11-23 00:00:00 10.8 27 Oeste 60 Oeste 0.2 945.8 0.1 80
2019-11-22 23:00:00 10.9 26 Oeste 50 Oeste 0 946.2 1.2 79
2019-11-22 22:00:00 11.3 22 Oeste 43 Oeste 0 946.1 1.6 79
2019-11-22 21:00:00 12.3 26 Oeste 56 Sudoeste 0 945.7 2.2 75
2019-11-22 20:00:00 13.2 23 Oeste 59 Sudoeste 0 945 2 70
2019-11-22 19:00:00 13.6 20 Oeste 36 Oeste 0 944.5 1.8 69
2019-11-22 18:00:00 13.9 17 Sudoeste 35 Oeste 0 943.5 0.3 74
2019-11-22 17:00:00 14.9 15 Sudoeste 45 Oeste 0 943 -1.4 74
2019-11-22 16:00:00 14.9 19 Sudoeste 49 Sudoeste 0 942.7 -2.3 79
2019-11-22 15:00:00 14.3 25 Sudoeste 67 Sur 2.4 943.2 -3.7 82
2019-11-22 14:00:00 13.5 21 Sudoeste 49 Sudoeste 4.4 944.4 -3.9 85
2019-11-22 13:00:00 13.1 23 Sudoeste 48 Sur 3 945 -4.3 85
2019-11-22 12:00:00 12.7 24 Sur 54 Sur 5.2 946.9 -3.3 84
2019-11-22 11:00:00 11.8 20 Sur 40 Sur 3.8 948.3 -2.9 84
2019-11-22 10:00:00 11.6 11 Sur 33 Sur 0.8 949.3 -2.5 82
2019-11-22 09:00:00 11.2 15 Sur 31 Sur 0.6 950.2 -2 82
2019-11-22 08:00:00 10.8 11 Sur 30 Sur 1 951.2 -2 84
2019-11-22 07:00:00 11.1 16 Sur 30 Sudoeste 0.2 951.8 -2.1 81
2019-11-22 06:00:00 11 14 Sur 31 Sudoeste 0.2 952.2 -1.7 84
2019-11-22 05:00:00 11.2 11 Sudoeste 24 Sudoeste 0 953.2 -1.2 84
2019-11-22 04:00:00 11.3 14 Sudoeste 30 Sudoeste 0 953.9 -1.2 82
2019-11-22 03:00:00 11.3 9 Sudoeste 19 Sudoeste 0 953.9 -1.6 82
2019-11-22 02:00:00 11 11 Sur 21 Sudoeste 0 954.4 -1.4 83
2019-11-22 01:00:00 10.6 8 Sur 15 Sur 0.2 955.1 -1.1 85
2019-11-22 00:00:00 9.4 2 Este 5 Sudeste 0 955.5 -0.5 85
2019-11-21 23:00:00 9.5 2 Sudeste 9 Sudoeste 0 955.8 -0.4 84
2019-11-21 22:00:00 10 3 Sudeste 7 Este 0 956.2 0.3 83
2019-11-21 21:00:00 10.3 2 Nordeste 9 Sur 0 956 0.3 83
2019-11-21 20:00:00 10.9 4 Sur 6 Sur 0 956.2 0.7 80
2019-11-21 19:00:00 10.9 3 Sudeste 7 Sudeste 0 955.9 0.1 82
2019-11-21 18:00:00 11.2 2 Sur 9 Sudoeste 0 955.7 -0.1 80
2019-11-21 17:00:00 12.6 6 Sudoeste 11 Oeste 0 955.5 -0.9 71
2019-11-21 16:00:00 11.8 7 Oeste 13 Sudoeste 0 955.8 -1 77
2019-11-21 15:00:00 11.9 6 Sudoeste 15 Sudoeste 0 955.8 -1.5 78
2019-11-21 14:00:00 11.9 4 Sudoeste 13 Sudoeste 0 956.4 -0.8 78
2019-11-21 13:00:00 10.9 4 Sur 13 Sudoeste 0 956.8 -0.3 79
2019-11-21 12:00:00 10.7 4 Sur 8 Sudoeste 0.4 957.3 0.7 83
2019-11-21 11:00:00 9.9 4 Sudoeste 12 Sudoeste 3.4 957.2 0.8 88
2019-11-21 10:00:00 9.7 8 Sur 19 Sur 1.2 957.1 0.7 86
2019-11-21 09:00:00 9.8 11 Sur 27 Sur 0 956.6 0.1 85
2019-11-21 08:00:00 9.6 11 Sur 21 Sudoeste 0 956.4 -0.3 85
2019-11-21 07:00:00 9.2 6 Sudoeste 16 Sur 0 956.4 -0.6 86
2019-11-21 06:00:00 9.3 6 Sudoeste 13 Sudoeste 0 956.5 -0.7 86
2019-11-21 05:00:00 9.4 10 Sudoeste 23 Sudoeste 0.2 956.7 -0.4 86
2019-11-21 04:00:00 9.2 10 Sudoeste 23 Sudoeste 0.2 957 -0.5 85
2019-11-21 03:00:00 8.7 7 Sudoeste 16 Sur 0.4 957.2 -0.1 85
2019-11-21 02:00:00 8.6 5 Sudoeste 14 Sur 0 957.1 -0.3 83
2019-11-21 01:00:00 8.8 9 Sudoeste 21 Sudoeste 0 957.5 0.1 83
2019-11-21 00:00:00 9 11 Sudoeste 20 Sudoeste 0 957.3 0.2 85
2019-11-20 23:00:00 9.1 10 Sur 19 Sur 0 957.4 0.4 84
2019-11-20 22:00:00 8.8 4 Noroeste 9 Oeste 0 957.4 0.9 85
2019-11-20 21:00:00 8.6 2 Este 8 Este 0 957.1 0.7 84
2019-11-20 20:00:00 8.5 6 Norte 22 Sur 0 957 0.2 85
2019-11-20 19:00:00 8.5 12 Sur 23 Sur 0 956.5 -0.3 83
2019-11-20 18:00:00 8.7 8 Sur 18 Sur 0 956.4 -0.4 84
2019-11-20 17:00:00 8.5 5 Sur 11 Sudeste 0 956.8 -1.1 83
2019-11-20 16:00:00 8.4 4 Sur 14 Sudeste 1 956.8 -2.1 82
2019-11-20 15:00:00 8.4 8 Sudeste 14 Sudeste 0 956.8 -2.7 79
2019-11-20 14:00:00 8 6 Sudeste 11 Sudeste 0.8 957.9 -2.2 77
2019-11-20 13:00:00 8.3 6 Sudeste 19 Este 0 958.9 -0.8 74
2019-11-20 12:00:00 8.3 5 Sur 21 Sur 0.8 959.5 -0.1 79
2019-11-20 11:00:00 6.8 2 Oeste 14 Oeste 0.4 960.1 0.5 88
2019-11-20 10:00:00 6.8 3 Norte 7 Norte 0 959.7 0 89
2019-11-20 09:00:00 5.9 3 Oeste 5 Oeste 0 959.6 -0.2 91
2019-11-20 08:00:00 5.2 0 Calma 4 Oeste 0 959.6 -0.6 90
2019-11-20 07:00:00 5.3 3 Sudoeste 6 Sudoeste 0 959.7 -0.9 89
2019-11-20 06:00:00 5.3 3 Sudoeste 6 Noroeste 0 959.8 -1.3 87
2019-11-20 05:00:00 6 4 Oeste 10 Oeste 0 960.2 -1.4 87
2019-11-20 04:00:00 6.2 3 Sudoeste 6 Nordeste 0 960.6 -1.6 88
2019-11-20 03:00:00 6.1 5 Sudoeste 7 Sudoeste 0 961.1 -1.4 88
2019-11-20 02:00:00 5.8 3 Sudoeste 6 Nordeste 0 961.6 -1.5 87
2019-11-20 01:00:00 6.1 2 Oeste 5 Sudoeste 0 962.2 -1 85
2019-11-20 00:00:00 6.7 0 Calma 5 Oeste 0 962.5 -0.8 82
2019-11-19 23:00:00 7 4 Oeste 8 Oeste 0 963.1 -0.3 82
2019-11-19 22:00:00 6.8 0 Calma 2 Nordeste 0 963.2 0 83
2019-11-19 21:00:00 7.3 0 Calma 4 Este 0 963.3 0.1 79
2019-11-19 20:00:00 8.3 2 Sudoeste 8 Sur 0 963.4 0.2 72
2019-11-19 19:00:00 8.9 3 Sur 5 Sur 0 963.2 -0.4 71
2019-11-19 18:00:00 9.9 0 Calma 5 Oeste 0 963.2 -0.8 64
2019-11-19 17:00:00 10.6 3 Oeste 11 Oeste 0 963.2 -1.5 61
2019-11-19 16:00:00 11.1 6 Oeste 11 Sudoeste 0 963.6 -1.8 59
2019-11-19 15:00:00 11.4 4 Noroeste 8 Noroeste 0 964 -2.3 62
2019-11-19 14:00:00 10.4 3 Sudoeste 7 Noroeste 0 964.7 -1.9 66
2019-11-19 13:00:00 9.6 2 Norte 6 Norte 0 965.4 -1.2 70
2019-11-19 12:00:00 7.6 3 Noroeste 5 Oeste 0 966.3 -0.1 75
2019-11-19 11:00:00 5.7 2 Noroeste 5 Noroeste 0 966.6 0.7 87
2019-11-19 10:00:00 3.4 0 Calma 5 Noroeste 0 966.6 0.9 91
2019-11-19 09:00:00 1.5 2 Noroeste 4 Noroeste 0 966.4 0.7 91
2019-11-19 08:00:00 1.3 2 Noroeste 5 Norte 0 965.9 0.4 90
2019-11-19 07:00:00 1.7 3 Este 7 Nordeste 0 965.7 0.1 90
2019-11-19 06:00:00 2.2 2 Sudeste 5 Este 0 965.7 0.1 90
2019-11-19 05:00:00 2.6 0 Calma 7 Sudoeste 0 965.5 -0.2 90
2019-11-19 04:00:00 3.8 4 Sudoeste 6 Sudoeste 0 965.6 -0.4 91
2019-11-19 03:00:00 3.9 4 Sudoeste 5 Oeste 0 965.6 -0.6 88
2019-11-19 02:00:00 4.5 4 Sudoeste 6 Oeste 0 965.7 -0.4 87
2019-11-19 01:00:00 4.6 3 Oeste 5 Nordeste 0 966 0.3 83
2019-11-19 00:00:00 5.2 2 Nordeste 6 Sudeste 0 966.2 0.9 81
2019-11-18 23:00:00 6 3 Sur 8 Oeste 0 966.1 1.1 79
2019-11-18 22:00:00 6.5 0 Calma 6 Sudeste 0 965.7 1.1 75
2019-11-18 21:00:00 8.8 3 Sudoeste 9 Sur 0 965.3 1.3 66
2019-11-18 20:00:00 9.8 4 Sudoeste 9 Oeste 0 965 1.5 62
2019-11-18 19:00:00 10.9 4 Este 10 Sudoeste 0 964.6 1.2 59
2019-11-18 18:00:00 11.6 5 Sudoeste 15 Sudoeste 0 964 0.6 58
2019-11-18 17:00:00 12.7 10 Sudoeste 18 Sudoeste 0 963.5 0 52
2019-11-18 16:00:00 14 11 Oeste 18 Oeste 0 963.4 -0.2 45
2019-11-18 15:00:00 13.7 8 Noroeste 20 Oeste 0 963.4 -0.5 45
2019-11-18 14:00:00 12.9 10 Noroeste 16 Noroeste 0 963.5 -0.1 49
2019-11-18 13:00:00 12.4 3 Oeste 9 Oeste 0 963.6 0.5 50
2019-11-18 12:00:00 10.9 5 Noroeste 10 Oeste 0 963.9 1.6 54
2019-11-18 11:00:00 9.9 4 Este 6 Este 0 963.6 2.3 67
2019-11-18 10:00:00 6.5 4 Sudoeste 6 Oeste 0 963.1 2.2 83
2019-11-18 09:00:00 3.8 0 Calma 8 Este 0 962.3 2.1 91
2019-11-18 08:00:00 3.1 4 Sur 8 Sudeste 0 961.3 1.7 90
2019-11-18 07:00:00 3.5 4 Sur 5 Sudoeste 0 960.9 1.8 90
2019-11-18 06:00:00 4.3 5 Sudoeste 6 Sudeste 0 960.2 1.4 89
2019-11-18 05:00:00 4.5 2 Sudoeste 7 Sudeste 0 959.6 1 88
2019-11-18 04:00:00 5.4 4 Sur 6 Sur 0 959.1 0.5 86
2019-11-18 03:00:00 6.7 3 Sudoeste 18 Oeste 0 958.8 0 83
2019-11-18 02:00:00 7.9 11 Oeste 22 Oeste 0 958.6 -0.4 81
2019-11-18 01:00:00 8.7 3 Oeste 17 Oeste 0 958.6 -0.2 82
2019-11-18 00:00:00 10 13 Oeste 25 Oeste 0 958.8 0.2 84
2019-11-17 23:00:00 10.8 12 Noroeste 33 Oeste 0.4 959 0 89
2019-11-17 22:00:00 11.4 19 Oeste 33 Oeste 2.6 958.8 -1.1 90
2019-11-17 21:00:00 10.4 8 Oeste 42 Oeste 5 958.6 -2 90
2019-11-17 20:00:00 11.3 14 Sudoeste 30 Sudoeste 0.2 959 -2.1 90
2019-11-17 19:00:00 10 4 Sudoeste 12 Sudoeste 2.2 959.9 -2.1 89
2019-11-17 18:00:00 9.9 3 Sudoeste 9 Norte 0.2 960.6 -2.1 89
2019-11-17 17:00:00 9.8 3 Norte 7 Norte 0 961.1 -2.2 88
2019-11-17 16:00:00 9.2 4 Oeste 12 Sudoeste 0.2 962 -2.1 89
2019-11-17 15:00:00 8.7 5 Oeste 15 Sudoeste 0 962.7 -2.5 87
2019-11-17 14:00:00 8.4 3 Sur 13 Sudoeste 0 963.3 -1.8 86
2019-11-17 13:00:00 7.6 4 Sur 10 Sur 0.4 964.1 -1 86
2019-11-17 12:00:00 6.8 5 Sudeste 14 Sudeste 0.2 965.2 0.3 86
2019-11-17 11:00:00 6.5 6 Sur 15 Sur 0 965.1 0.2 86
2019-11-17 10:00:00 6.1 7 Sur 17 Sur 0 965.1 0.5 86
2019-11-17 09:00:00 5.5 9 Sur 15 Sur 0 964.9 0.2 85
2019-11-17 08:00:00 5.7 2 Sudoeste 14 Sudoeste 0 964.9 0.2 78
2019-11-17 07:00:00 5.6 10 Sudoeste 20 Sudoeste 0 964.6 -0.2 76
2019-11-17 06:00:00 5.5 6 Sudoeste 14 Sudoeste 0 964.7 -0.3 72
2019-11-17 05:00:00 4.7 10 Sudoeste 15 Sudoeste 0 964.7 -0.3 72
2019-11-17 04:00:00 5.2 8 Sudoeste 18 Sudoeste 0 964.8 -0.2 68
2019-11-17 03:00:00 5.3 6 Oeste 16 Sudoeste 0 965 -0.4 66
2019-11-17 02:00:00 5.9 10 Sudoeste 19 Sudoeste 0 965 -0.4 64
2019-11-17 01:00:00 6.4 10 Sudoeste 18 Sudoeste 0 965 -0.3 59
2019-11-17 00:00:00 6.7 4 Oeste 11 Sudoeste 0 965.4 0.1 57
2019-11-16 23:00:00 6.9 6 Sudoeste 10 Sudoeste 0 965.4 0.4 57
2019-11-16 22:00:00 7.4 2 Sudoeste 13 Sudoeste 0 965.3 0.7 54
2019-11-16 21:00:00 7.8 6 Sudoeste 10 Oeste 0 965.3 1 51
2019-11-16 20:00:00 8.1 7 Sur 15 Oeste 0 965 0.9 49
2019-11-16 19:00:00 8.7 9 Oeste 20 Oeste 0 964.6 0.7 47
2019-11-16 18:00:00 10.2 13 Oeste 26 Oeste 0 964.3 0.6 42
2019-11-16 17:00:00 12.2 11 Oeste 26 Oeste 0 964.1 0.4 37
2019-11-16 16:00:00 12.3 13 Oeste 27 Oeste 0 963.9 0 38
2019-11-16 15:00:00 12.3 13 Oeste 23 Oeste 0 963.7 -0.8 37
2019-11-16 14:00:00 11.4 12 Oeste 22 Sudoeste 0 963.7 -0.5 43
2019-11-16 13:00:00 10.8 8 Sudoeste 21 Sudoeste 0 963.9 0.3 45
2019-11-16 12:00:00 8.9 5 Oeste 8 Oeste 0 964.5 1.7 56
2019-11-16 11:00:00 6.1 2 Nordeste 8 Nordeste 0 964.2 2.4 72
2019-11-16 10:00:00 3.2 6 Nordeste 10 Oeste 0 963.6 2.6 76
2019-11-16 09:00:00 -0.1 3 Noroeste 6 Sudeste 0 962.8 2.8 85
2019-11-16 08:00:00 -0.8 2 Sur 8 Sudoeste 0 961.8 2.4 87
2019-11-16 07:00:00 -0.5 6 Sudoeste 9 Sudoeste 0 961 2.1 87
2019-11-16 06:00:00 -0.3 2 Sur 8 Sudoeste 0 960 1.7 84
2019-11-16 05:00:00 0.3 5 Sudoeste 8 Sudoeste 0 959.4 1.8 85
2019-11-16 04:00:00 0.2 5 Sudoeste 10 Oeste 0 958.9 1.4 83
2019-11-16 03:00:00 1.1 6 Sudoeste 8 Sur 0 958.3 0.9 81
2019-11-16 02:00:00 1.3 4 Sudeste 8 Sudeste 0 957.6 0.5 79
2019-11-16 01:00:00 2.4 0 Calma 7 Sudeste 0 957.5 0.9 73
2019-11-16 00:00:00 2.9 0 Calma 8 Sur 0 957.4 1.3 71
2019-11-15 23:00:00 4.8 3 Sudeste 8 Sudoeste 0 957.1 1.3 61
2019-11-15 22:00:00 5.5 5 Sudoeste 10 Oeste 0 956.6 1.2 56
2019-11-15 21:00:00 6.3 6 Oeste 13 Oeste 0 956.1 1.2 52
2019-11-15 20:00:00 7.4 9 Oeste 16 Oeste 0 955.8 1.3 50
2019-11-15 19:00:00 8.2 9 Oeste 18 Oeste 0 955.4 1.2 49
2019-11-15 18:00:00 9.1 8 Oeste 21 Oeste 0 954.9 0.7 50
2019-11-15 17:00:00 10.5 11 Noroeste 24 Noroeste 0 954.5 0.1 44
2019-11-15 16:00:00 11.1 18 Noroeste 28 Noroeste 0 954.2 -0.8 44
2019-11-15 15:00:00 12.2 8 Sudoeste 22 Oeste 0 954.2 -1.6 38
2019-11-15 14:00:00 11.9 6 Sudoeste 17 Oeste 0 954.4 -1.3 44
2019-11-15 13:00:00 10.9 6 Oeste 18 Oeste 0 955 -0.7 46
2019-11-15 12:00:00 9.1 8 Oeste 15 Sudoeste 0 955.8 0.5 49
2019-11-15 11:00:00 7.8 8 Sudoeste 18 Oeste 0 955.7 1.1 56
2019-11-15 10:00:00 6.4 10 Oeste 21 Sudoeste 0 955.7 1.4 63
2019-11-15 09:00:00 4.5 11 Oeste 21 Sudoeste 0 955.3 1.5 69
2019-11-15 08:00:00 3.8 11 Oeste 18 Sudoeste 0 954.6 1 73
2019-11-15 07:00:00 4.2 9 Sudoeste 18 Sudoeste 0 954.3 0.4 69
2019-11-15 06:00:00 5.2 6 Sudoeste 30 Oeste 0 953.8 0.3 61
2019-11-15 05:00:00 5.5 13 Oeste 26 Oeste 0 953.6 -0.2 62
2019-11-15 04:00:00 6 9 Oeste 28 Oeste 0 953.9 -0.1 61
2019-11-15 03:00:00 6.9 21 Oeste 45 Oeste 0 953.5 -0.4 58
2019-11-15 02:00:00 6.7 22 Oeste 38 Oeste 0 953.8 -0.5 66
2019-11-15 01:00:00 7.5 22 Oeste 41 Oeste 0 954 -0.1 62
2019-11-15 00:00:00 7.8 24 Oeste 44 Oeste 0 953.9 0.1 64
2019-11-14 23:00:00 8.3 22 Oeste 42 Oeste 0 954.3 0.8 59
2019-11-14 22:00:00 8.1 17 Sudoeste 37 Sudoeste 0 954.1 0.5 73
2019-11-14 21:00:00 8.9 18 Oeste 44 Oeste 0 953.8 0.8 64
2019-11-14 20:00:00 9.5 24 Oeste 48 Oeste 0 953.5 0.7 60
2019-11-14 19:00:00 9.9 26 Oeste 54 Oeste 0 953.6 0.3 56
2019-11-14 18:00:00 10.5 22 Oeste 45 Oeste 0 953 -0.3 53
2019-11-14 17:00:00 10.7 33 Oeste 53 Oeste 0 952.8 -0.9 50
2019-11-14 16:00:00 11 26 Oeste 54 Oeste 0 953.3 -1.2 48
2019-11-14 15:00:00 11.3 31 Oeste 49 Noroeste 0 953.3 -2.5 50
2019-11-14 14:00:00 11.4 26 Oeste -- -- -- 953.7 -2.1 52
2019-11-14 13:00:00 10.4 18 Oeste 36 Oeste 0 954.5 -0.8 62
2019-11-14 12:00:00 10 19 Oeste 28 Oeste 0 955.8 0.8 74
2019-11-14 11:00:00 8.8 15 Oeste 37 Oeste 0.6 955.8 1 82
2019-11-14 10:00:00 9.5 19 Oeste 48 Oeste 0.4 955.3 -0.3 83
2019-11-14 09:00:00 9.7 25 Oeste 50 Oeste 1 955 -1.5 85
2019-11-14 08:00:00 9.8 26 Oeste 49 Oeste 0.4 954.8 -2.5 85
2019-11-14 07:00:00 9.7 18 Oeste 40 Oeste 0 955.6 -2.9 82
2019-11-14 06:00:00 9.5 20 Oeste 41 Sudoeste 0 956.5 -2.8 81
2019-11-14 05:00:00 9 17 Oeste 33 Oeste 0 957.3 -2.7 81
2019-11-14 04:00:00 8.9 15 Sudoeste 37 Sudoeste 0 958.5 -1.8 78
2019-11-14 03:00:00 9.7 14 Sudoeste 27 Sudoeste 0 959.3 -1.5 75
2019-11-14 02:00:00 10 18 Oeste 33 Sudoeste 0 960 -1 78
2019-11-14 01:00:00 10.6 16 Oeste 31 Oeste 0 960.3 -0.9 79
2019-11-14 00:00:00 11.3 18 Oeste 32 Oeste 0 960.8 -0.6 78
2019-11-13 23:00:00 12.4 14 Sudoeste 26 Oeste 0 961 -0.4 75
2019-11-13 22:00:00 13.4 16 Sudoeste 36 Oeste 0 961.2 -0.5 71
2019-11-13 21:00:00 14.6 20 Oeste 40 Oeste 0 961.4 0.4 67
2019-11-13 20:00:00 15.2 20 Sudoeste 38 Oeste 0 961.4 0.3 65
2019-11-13 19:00:00 16.6 22 Oeste 37 Oeste 0 961.7 1 59
2019-11-13 18:00:00 17.3 14 Oeste 28 Noroeste 0 961 0.5 50
2019-11-13 17:00:00 18 19 Oeste 35 Oeste 0 961.1 0.7 47
2019-11-13 16:00:00 19.2 15 Oeste 30 Oeste 0 960.7 -0.4 44
2019-11-13 15:00:00 19.4 17 Oeste 29 Oeste 0 960.5 -0.6 44
2019-11-13 14:00:00 19.2 14 Sudoeste 31 Oeste 0 960.4 -0.4 51
2019-11-13 13:00:00 18.1 18 Oeste 36 Oeste 0 961.1 1.1 57
2019-11-13 12:00:00 16.8 15 Oeste 36 Oeste 0 961.1 1.5 67
2019-11-13 11:00:00 15 21 Oeste 45 Oeste 0.2 960.8 1.8 74
2019-11-13 10:00:00 13.5 26 Oeste 45 Oeste 0 960 1.5 84
2019-11-13 09:00:00 12.8 22 Oeste 40 Oeste 0 959.6 1.1 88
2019-11-13 08:00:00 12.4 21 Oeste 42 Oeste 0.2 959 0.2 90
2019-11-13 07:00:00 12.1 22 Oeste 43 Oeste 0.4 958.5 -0.9 90
2019-11-13 06:00:00 12 19 Oeste 45 Oeste 0.6 958.5 -1.2 89
2019-11-13 05:00:00 12.1 18 Oeste 45 Noroeste 0.4 958.8 -1.3 86
2019-11-13 04:00:00 11.9 15 Oeste 38 Oeste 0 959.4 -1.5 85
2019-11-13 03:00:00 12.2 15 Oeste 44 Oeste 0 959.7 -1.6 80
2019-11-13 02:00:00 12.2 22 Oeste 43 Oeste 0 960.1 -2.1 80
2019-11-13 01:00:00 12.2 18 Oeste 38 Oeste 0 960.9 -1 79
2019-11-13 00:00:00 12 19 Oeste 40 Sudoeste 0 961.3 -0.6 76
2019-11-12 23:00:00 12.4 19 Oeste 42 Oeste 0 962.2 -0.1 68
2019-11-12 22:00:00 12.9 18 Oeste 37 Oeste 0 961.9 -0.7 60
2019-11-12 21:00:00 13.6 17 Oeste 31 Oeste 0 961.9 -0.8 52
2019-11-12 20:00:00 13.9 15 Oeste 27 Oeste 0 962.3 -0.5 49
2019-11-12 19:00:00 13.4 9 Oeste 15 Oeste 0 962.6 -0.6 47
2019-11-12 18:00:00 13.4 5 Sudoeste 14 Sudoeste 0 962.7 -0.9 48
2019-11-12 17:00:00 15.4 4 Sur 16 Noroeste 0 962.8 -1.3 41
2019-11-12 16:00:00 15 9 Noroeste 17 Sudoeste 0 963.2 -1.8 45
2019-11-12 15:00:00 14.8 9 Oeste 24 Sudoeste 0 963.6 -2 52
2019-11-12 14:00:00 14.6 10 Oeste 20 Oeste 0 964.1 -1.3 54
2019-11-12 13:00:00 12.7 7 Oeste 15 Norte 0 965 -0.4 66
2019-11-12 12:00:00 11.2 9 Norte 16 Noroeste 0 965.6 0.6 76
2019-11-12 11:00:00 9.2 5 Nordeste 9 Nordeste 0 965.4 0.8 87
2019-11-12 10:00:00 8.2 6 Este 12 Este 0 965.4 1.2 89
2019-11-12 09:00:00 8.1 5 Sudeste 10 Sur 0 965 1 90
2019-11-12 08:00:00 7.7 5 Sur 10 Sur 0 964.6 0 91
2019-11-12 07:00:00 8.1 2 Sur 7 Sudoeste 0 964.2 -0.9 91
2019-11-12 06:00:00 8.4 4 Este 8 Este 0 964 -1.3 91
2019-11-12 05:00:00 8.8 4 Nordeste 7 Este 0 964.6 -0.8 91
2019-11-12 04:00:00 9.2 3 Nordeste 8 Sudeste 0 965.1 -0.2 91
2019-11-12 03:00:00 9.3 3 Sudeste 7 Norte 0 965.3 -0.2 91
2019-11-12 02:00:00 9.5 5 Nordeste 9 Nordeste 0 965.4 0.3 92
2019-11-12 01:00:00 9.6 2 Nordeste 5 Norte 0 965.3 -0.1 91
2019-11-12 00:00:00 9.3 0 Calma 4 Nordeste 0 965.5 0.7 91
2019-11-11 23:00:00 8.8 0 Calma 8 Sur 0 965.1 0.6 91
2019-11-11 22:00:00 8.5 3 Sur 9 Sudoeste 0 965.4 1.2 90
2019-11-11 21:00:00 8.6 2 Oeste 5 Nordeste 0 964.8 0.8 88
2019-11-11 20:00:00 9.5 2 Sur 8 Sudoeste 0 964.5 0.5 87
2019-11-11 19:00:00 10.5 5 Este 13 Este 0 964.2 0 85
2019-11-11 18:00:00 12.3 5 Este 12 Este 0 964 0.4 80
2019-11-11 17:00:00 12.5 3 Sur 7 Oeste 0 964 -0.5 80
2019-11-11 16:00:00 11.7 3 Sudoeste 13 Oeste 0 964.2 -1.1 83
2019-11-11 15:00:00 11.3 6 Sudoeste 16 Oeste 0 963.6 -2.7 83
2019-11-11 14:00:00 11 7 Oeste 15 Oeste 0 964.5 -2.1 81
2019-11-11 13:00:00 11 9 Oeste 16 Oeste 0 965.3 -1.3 79
2019-11-11 12:00:00 10.8 10 Oeste 18 Sudoeste 0 966.3 -0.1 78
2019-11-11 11:00:00 10.3 7 Oeste 16 Oeste 0 966.6 0.2 80
2019-11-11 10:00:00 10.2 6 Oeste 14 Sudoeste 0 966.6 0.2 80
2019-11-11 09:00:00 9.4 6 Sudoeste 12 Sudoeste 0 966.4 -0.2 83
2019-11-11 08:00:00 9.2 6 Sudoeste 14 Oeste 0 966.4 -0.1 82
2019-11-11 07:00:00 9.2 6 Sudoeste 13 Oeste 0 966.4 -0.4 80
2019-11-11 06:00:00 9.2 8 Oeste 14 Oeste 0 966.6 -0.1 80
2019-11-11 05:00:00 9.2 8 Oeste 14 Oeste 0 966.5 -1 76
2019-11-11 04:00:00 9.1 6 Oeste 10 Oeste 0 966.8 -0.8 75
2019-11-11 03:00:00 9.1 5 Sudoeste 13 Sudoeste 0 966.7 -0.8 73
2019-11-11 02:00:00 9.3 5 Sur 8 Sudoeste 0 967.5 0.1 70
2019-11-11 01:00:00 9.6 3 Sudoeste 13 Noroeste 0 967.6 0.7 66
2019-11-11 00:00:00 9.7 6 Oeste 15 Oeste 0 967.5 0.4 65
2019-11-10 23:00:00 9.8 10 Oeste 19 Noroeste 0 967.4 0 64
2019-11-10 22:00:00 10 13 Noroeste 22 Noroeste 0 966.9 -0.4 63
2019-11-10 21:00:00 10.2 13 Noroeste 26 Noroeste 0 967.1 0.5 62
2019-11-10 20:00:00 10.2 10 Noroeste 23 Noroeste 0 967.4 1 62
2019-11-10 19:00:00 10.5 18 Noroeste 36 Noroeste 0 967.3 1 58
2019-11-10 18:00:00 10.7 22 Noroeste 40 Noroeste 0 966.6 0.6 54
2019-11-10 17:00:00 11.8 23 Noroeste 41 Noroeste 0 966.4 -0.2 51
2019-11-10 16:00:00 12.3 23 Noroeste 44 Noroeste 0 966.3 -1 44
2019-11-10 15:00:00 13.1 23 Noroeste 36 Noroeste 0 966 -1.8 41
2019-11-10 14:00:00 12.3 24 Oeste 39 Noroeste 0 966.6 -1.1 47
2019-11-10 13:00:00 11.7 17 Noroeste 33 Noroeste 0 967.3 -0.3 49
2019-11-10 12:00:00 11.4 14 Noroeste 23 Noroeste 0 967.8 0.2 49
2019-11-10 11:00:00 10.3 13 Oeste 22 Noroeste 0 967.7 0.9 51
2019-11-10 10:00:00 9.8 11 Oeste 17 Oeste 0 967.6 1.6 55
2019-11-10 09:00:00 8.8 9 Oeste 13 Oeste 0 967.6 2 60
2019-11-10 08:00:00 8.2 5 Oeste 14 Noroeste 0 966.8 1.3 62
2019-11-10 07:00:00 8.6 6 Noroeste 21 Noroeste 0 966 0 63
2019-11-10 06:00:00 9.3 9 Oeste 24 Oeste 0 965.6 -0.1 63
2019-11-10 05:00:00 9.9 12 Oeste 24 Oeste 0 965.5 -0.5 64
2019-11-10 04:00:00 10.1 9 Oeste 23 Oeste 0 966 -0.3 67
2019-11-10 03:00:00 10.9 14 Sudoeste 30 Oeste 0 965.7 -0.8 70
2019-11-10 02:00:00 11.2 17 Oeste 30 Oeste 0 966 -0.6 72
2019-11-10 01:00:00 11.5 18 Oeste 32 Oeste 0 966.3 -0.6 79
2019-11-10 00:00:00 11.8 14 Oeste 27 Oeste 0 966.5 -0.8 83
2019-11-09 23:00:00 11.8 17 Oeste 31 Oeste 0 966.6 -0.9 85
2019-11-09 22:00:00 11.8 17 Oeste 36 Sudoeste 0 966.9 -0.9 87
2019-11-09 21:00:00 11.4 12 Oeste 24 Oeste 0.6 967.3 -0.5 88
2019-11-09 20:00:00 11.3 15 Oeste 30 Sudoeste 0.4 967.5 -0.5 87
2019-11-09 19:00:00 11.2 10 Oeste 21 Oeste 0.4 967.8 -0.7 82
2019-11-09 18:00:00 12.8 12 Oeste 25 Sudoeste 0 967.8 -0.8 60
2019-11-09 17:00:00 13.4 14 Oeste 27 Sudoeste 0 968 -1.2 50
2019-11-09 16:00:00 13.7 15 Oeste 27 Sudoeste 0 968.5 -1.6 45
2019-11-09 15:00:00 14.5 15 Oeste 27 Oeste 0 968.6 -2 44
2019-11-09 14:00:00 14 14 Sudoeste 24 Oeste 0 969.2 -1.6 45
2019-11-09 13:00:00 12.2 12 Oeste 22 Sudoeste 0 970.1 -1.1 50
2019-11-09 12:00:00 12.2 11 Oeste 21 Sudoeste 0 970.6 0.1 49
2019-11-09 11:00:00 10.6 5 Sudoeste 12 Oeste 0 970.8 0.8 56
2019-11-09 10:00:00 8.4 4 Noroeste 12 Oeste 0 971.2 0.8 64
2019-11-09 09:00:00 5.2 2 Nordeste 8 Sur 0 970.5 0.7 77
2019-11-09 08:00:00 4.8 5 Sur 10 Sur 0 970 0.4 75
2019-11-09 07:00:00 4.7 6 Sur 8 Sur 0 970.4 0.8 76
2019-11-09 06:00:00 5.4 6 Sur 13 Oeste 0 969.8 0.1 72
2019-11-09 05:00:00 4 3 Sudeste 8 Sur 0 969.6 -0.4 77
2019-11-09 04:00:00 5 3 Sur 10 Sudoeste 0 969.6 -0.7 73
2019-11-09 03:00:00 5.2 6 Sudoeste 7 Sudoeste 0 969.7 -0.4 73
2019-11-09 02:00:00 5.3 4 Sur 8 Nordeste 0 970 0.3 71
2019-11-09 01:00:00 6.8 3 Oeste 12 Oeste 0 970.3 0.8 63
2019-11-09 00:00:00 7.8 6 Oeste 14 Sudoeste 0 970.1 0.9 58
2019-11-08 23:00:00 8.7 8 Oeste 13 Oeste 0 969.7 1 53
2019-11-08 22:00:00 9.2 7 Sudoeste 15 Oeste 0 969.5 1.5 51
2019-11-08 21:00:00 9.9 8 Oeste 16 Oeste 0 969.2 2.1 50
2019-11-08 20:00:00 10.4 5 Sudoeste 21 Oeste 0 968.7 2 48
2019-11-08 19:00:00 10.9 12 Oeste 23 Oeste 0 968 1.8 48
2019-11-08 18:00:00 12.4 11 Oeste 26 Oeste 0 967.1 1.1 42
2019-11-08 17:00:00 14.3 14 Oeste 28 Oeste 0 966.7 0.7 36
2019-11-08 16:00:00 14.6 15 Oeste 27 Oeste 0 966.2 -0.2 34
2019-11-08 15:00:00 14.7 9 Oeste 24 Oeste 0 966 -0.7 36
2019-11-08 14:00:00 13.5 13 Oeste 23 Oeste 0 966 -0.5 40
2019-11-08 13:00:00 12.5 12 Oeste 24 Oeste 0 966.4 0.3 44
2019-11-08 12:00:00 11.5 8 Oeste 22 Oeste 0 966.7 1.4 48
2019-11-08 11:00:00 9.8 15 Oeste 26 Oeste 0 966.5 1.9 56
2019-11-08 10:00:00 8.7 10 Oeste 20 Oeste 0 966.1 2.2 63
2019-11-08 09:00:00 7 10 Sudoeste 19 Oeste 0 965.3 1.9 72
2019-11-08 08:00:00 5.8 6 Oeste 27 Oeste 0 964.6 1.6 75
2019-11-08 07:00:00 6.2 12 Oeste 23 Sudoeste 0 963.9 0.9 79
2019-11-08 06:00:00 6.8 11 Sudoeste 31 Oeste 0 963.4 0.5 79
2019-11-08 05:00:00 7.5 14 Oeste 25 Oeste 0 963 -0.1 76
2019-11-08 04:00:00 7.9 17 Oeste 36 Oeste 0 963 -0.5 74
2019-11-08 03:00:00 7.6 9 Oeste 23 Oeste 0 962.9 -0.3 70
2019-11-08 02:00:00 7.9 12 Oeste 24 Oeste 0 963.1 -0.4 70
2019-11-08 01:00:00 8 9 Oeste 30 Oeste 0 963.5 0.3 69
2019-11-08 00:00:00 8.3 15 Oeste 27 Oeste 0 963.2 0.6 67